Corpus Christi Jet Center

SKYE FBO - AIRPORT SERVICES
McCampbell-Porter Airport KTFP
Call Us 24/7: (361) 758-2000
KTFP - McCampbell-Porter Airport
Updated: Tue, 13-Nov-2018 8:15pm PST
Clear
Clear
 Wind from N
Wind: N 8 mph , 13 km/h
Temperature: 37°F , 3°C
Wind Chill: 31°F , -1°C
Dew Point: 34°F , 1°C
Humidity: 87%
Barometer: 30.55 inHg , 1034.5 hPa
Clouds: Clear
Visibility: 10 miles , 16 km
2018/11/14 04:15 KTFP 140415Z AUTO 35007KT 10SM CLR 03/01 A3055 RMK AO2 T00340006 PNO

Location

3141 FM 3512
Aransas Pass, TX 78336-9728
361-758-2000
2 miles N of Ingleside, TX
Only 15 min from downtown Corpus Christi 2 miles N of Ingleside, Texas and only 15 minutes from downtown Corpus Christi, Texas

(click to enlarge)

Map


View Larger Map

Skyview Aviation BBB Business Review

Call Us: 361-758-2000

or send us a message

*please use contact form for feedback only. ALL requests must be made by phone.